sensor_id;sensor_type;location;lat;lon;timestamp;temperature;humidity
2300;DHT22;1158;48.750;9.078;2022-10-16T00:02:21;14.80;99.90
2300;DHT22;1158;48.750;9.078;2022-10-16T00:04:47;14.80;99.90
2300;DHT22;1158;48.750;9.078;2022-10-16T00:07:14;14.70;99.90
2300;DHT22;1158;48.750;9.078;2022-10-16T00:09:41;14.70;99.90
2300;DHT22;1158;48.750;9.078;2022-10-16T00:12:08;14.70;99.90
2300;DHT22;1158;48.750;9.078;2022-10-16T00:14:34;14.70;99.90
2300;DHT22;1158;48.750;9.078;2022-10-16T00:17:02;14.60;99.90
2300;DHT22;1158;48.750;9.078;2022-10-16T00:19:29;14.60;99.90
2300;DHT22;1158;48.750;9.078;2022-10-16T00:21:56;14.60;99.90
2300;DHT22;1158;48.750;9.078;2022-10-16T00:24:23;14.50;99.90
2300;DHT22;1158;48.750;9.078;2022-10-16T00:26:49;14.50;99.90
2300;DHT22;1158;48.750;9.078;2022-10-16T00:29:17;14.40;99.90
2300;DHT22;1158;48.750;9.078;2022-10-16T00:31:44;14.40;99.90
2300;DHT22;1158;48.750;9.078;2022-10-16T00:34:12;14.30;99.90
2300;DHT22;1158;48.750;9.078;2022-10-16T00:36:39;14.30;99.90
2300;DHT22;1158;48.750;9.078;2022-10-16T00:39:05;14.30;99.90
2300;DHT22;1158;48.750;9.078;2022-10-16T00:41:33;14.40;99.90
2300;DHT22;1158;48.750;9.078;2022-10-16T00:44:01;14.40;99.90
2300;DHT22;1158;48.750;9.078;2022-10-16T00:46:31;14.30;99.90
2300;DHT22;1158;48.750;9.078;2022-10-16T00:49:04;14.30;99.90
2300;DHT22;1158;48.750;9.078;2022-10-16T00:51:37;14.30;99.90
2300;DHT22;1158;48.750;9.078;2022-10-16T00:54:09;14.30;99.90
2300;DHT22;1158;48.750;9.078;2022-10-16T00:56:36;14.30;99.90
2300;DHT22;1158;48.750;9.078;2022-10-16T00:59:06;14.20;99.90
2300;DHT22;1158;48.750;9.078;2022-10-16T01:01:35;14.20;99.90
2300;DHT22;1158;48.750;9.078;2022-10-16T01:04:02;14.10;99.90
2300;DHT22;1158;48.750;9.078;2022-10-16T01:06:35;14.10;99.90
2300;DHT22;1158;48.750;9.078;2022-10-16T01:09:11;14.10;99.90
2300;DHT22;1158;48.750;9.078;2022-10-16T01:11:45;14.10;99.90
2300;DHT22;1158;48.750;9.078;2022-10-16T01:14:20;14.20;99.90
2300;DHT22;1158;48.750;9.078;2022-10-16T01:16:52;14.20;99.90
2300;DHT22;1158;48.750;9.078;2022-10-16T01:19:26;14.20;99.90
2300;DHT22;1158;48.750;9.078;2022-10-16T01:22:00;14.20;99.90
2300;DHT22;1158;48.750;9.078;2022-10-16T01:24:34;14.20;99.90
2300;DHT22;1158;48.750;9.078;2022-10-16T01:27:09;14.10;99.90
2300;DHT22;1158;48.750;9.078;2022-10-16T01:29:40;14.10;99.90
2300;DHT22;1158;48.750;9.078;2022-10-16T01:32:15;14.00;99.90
2300;DHT22;1158;48.750;9.078;2022-10-16T01:34:48;14.00;99.90
2300;DHT22;1158;48.750;9.078;2022-10-16T01:37:21;14.10;99.90
2300;DHT22;1158;48.750;9.078;2022-10-16T01:39:49;14.20;99.90
2300;DHT22;1158;48.750;9.078;2022-10-16T01:42:21;14.20;99.90
2300;DHT22;1158;48.750;9.078;2022-10-16T01:44:49;14.20;99.90
2300;DHT22;1158;48.750;9.078;2022-10-16T01:47:18;14.20;99.90
2300;DHT22;1158;48.750;9.078;2022-10-16T01:49:46;14.20;99.90
2300;DHT22;1158;48.750;9.078;2022-10-16T01:52:15;14.30;99.90
2300;DHT22;1158;48.750;9.078;2022-10-16T01:54:46;14.30;99.90
2300;DHT22;1158;48.750;9.078;2022-10-16T01:57:14;14.30;99.90
2300;DHT22;1158;48.750;9.078;2022-10-16T01:59:47;14.30;99.90
2300;DHT22;1158;48.750;9.078;2022-10-16T02:02:15;14.30;99.90
2300;DHT22;1158;48.750;9.078;2022-10-16T02:04:46;14.30;99.90
2300;DHT22;1158;48.750;9.078;2022-10-16T02:07:14;14.40;99.90
2300;DHT22;1158;48.750;9.078;2022-10-16T02:09:41;14.50;99.90
2300;DHT22;1158;48.750;9.078;2022-10-16T02:12:12;14.50;99.90
2300;DHT22;1158;48.750;9.078;2022-10-16T02:14:40;14.60;99.90
2300;DHT22;1158;48.750;9.078;2022-10-16T02:17:13;14.60;99.90
2300;DHT22;1158;48.750;9.078;2022-10-16T02:19:41;14.60;99.90
2300;DHT22;1158;48.750;9.078;2022-10-16T02:22:15;14.60;99.90
2300;DHT22;1158;48.750;9.078;2022-10-16T02:24:50;14.70;99.90
2300;DHT22;1158;48.750;9.078;2022-10-16T02:27:23;14.70;99.90
2300;DHT22;1158;48.750;9.078;2022-10-16T02:29:55;14.70;99.90
2300;DHT22;1158;48.750;9.078;2022-10-16T02:32:30;14.80;99.90
2300;DHT22;1158;48.750;9.078;2022-10-16T02:34:58;14.80;99.90
2300;DHT22;1158;48.750;9.078;2022-10-16T02:37:26;14.80;99.90
2300;DHT22;1158;48.750;9.078;2022-10-16T02:39:55;14.80;99.90
2300;DHT22;1158;48.750;9.078;2022-10-16T02:42:27;14.80;99.90
2300;DHT22;1158;48.750;9.078;2022-10-16T02:44:54;14.70;99.90
2300;DHT22;1158;48.750;9.078;2022-10-16T02:47:21;14.80;99.90
2300;DHT22;1158;48.750;9.078;2022-10-16T02:49:49;14.80;99.90
2300;DHT22;1158;48.750;9.078;2022-10-16T02:52:16;14.70;99.90
2300;DHT22;1158;48.750;9.078;2022-10-16T02:54:43;14.70;99.90
2300;DHT22;1158;48.750;9.078;2022-10-16T02:57:09;14.70;99.90
2300;DHT22;1158;48.750;9.078;2022-10-16T02:59:37;14.70;99.90
2300;DHT22;1158;48.750;9.078;2022-10-16T03:02:03;14.60;99.90
2300;DHT22;1158;48.750;9.078;2022-10-16T03:04:30;14.60;99.90
2300;DHT22;1158;48.750;9.078;2022-10-16T03:06:58;14.60;99.90
2300;DHT22;1158;48.750;9.078;2022-10-16T03:09:25;14.60;99.90
2300;DHT22;1158;48.750;9.078;2022-10-16T03:11:52;14.70;99.90
2300;DHT22;1158;48.750;9.078;2022-10-16T03:14:18;14.70;99.90
2300;DHT22;1158;48.750;9.078;2022-10-16T03:16:45;14.80;99.90
2300;DHT22;1158;48.750;9.078;2022-10-16T03:19:12;14.70;99.90
2300;DHT22;1158;48.750;9.078;2022-10-16T03:21:39;14.80;99.90
2300;DHT22;1158;48.750;9.078;2022-10-16T03:24:07;14.70;99.90
2300;DHT22;1158;48.750;9.078;2022-10-16T03:26:34;14.80;99.90
2300;DHT22;1158;48.750;9.078;2022-10-16T03:29:01;14.70;99.90
2300;DHT22;1158;48.750;9.078;2022-10-16T03:31:28;14.70;99.90
2300;DHT22;1158;48.750;9.078;2022-10-16T03:33:55;14.70;99.90
2300;DHT22;1158;48.750;9.078;2022-10-16T03:36:22;14.80;99.90
2300;DHT22;1158;48.750;9.078;2022-10-16T03:38:49;14.80;99.90
2300;DHT22;1158;48.750;9.078;2022-10-16T03:41:17;14.70;99.90
2300;DHT22;1158;48.750;9.078;2022-10-16T03:43:44;14.70;99.90
2300;DHT22;1158;48.750;9.078;2022-10-16T03:46:11;14.70;99.90
2300;DHT22;1158;48.750;9.078;2022-10-16T03:48:38;14.70;99.90
2300;DHT22;1158;48.750;9.078;2022-10-16T03:51:05;14.80;99.90
2300;DHT22;1158;48.750;9.078;2022-10-16T03:53:32;14.80;99.90
2300;DHT22;1158;48.750;9.078;2022-10-16T03:55:58;14.80;99.90
2300;DHT22;1158;48.750;9.078;2022-10-16T03:58:27;14.70;99.90
2300;DHT22;1158;48.750;9.078;2022-10-16T04:00:53;14.80;99.90
2300;DHT22;1158;48.750;9.078;2022-10-16T04:03:20;14.70;99.90
2300;DHT22;1158;48.750;9.078;2022-10-16T04:05:48;14.70;99.90
2300;DHT22;1158;48.750;9.078;2022-10-16T04:08:15;14.60;99.90
2300;DHT22;1158;48.750;9.078;2022-10-16T04:10:42;14.60;99.90
2300;DHT22;1158;48.750;9.078;2022-10-16T04:13:09;14.60;99.90
2300;DHT22;1158;48.750;9.078;2022-10-16T04:15:38;14.60;99.90
2300;DHT22;1158;48.750;9.078;2022-10-16T04:18:05;14.60;99.90
2300;DHT22;1158;48.750;9.078;2022-10-16T04:20:32;14.60;99.90
2300;DHT22;1158;48.750;9.078;2022-10-16T04:22:59;14.60;99.90
2300;DHT22;1158;48.750;9.078;2022-10-16T04:25:25;14.60;99.90
2300;DHT22;1158;48.750;9.078;2022-10-16T04:27:52;14.50;99.90
2300;DHT22;1158;48.750;9.078;2022-10-16T04:30:20;14.50;99.90
2300;DHT22;1158;48.750;9.078;2022-10-16T04:32:49;14.40;99.90
2300;DHT22;1158;48.750;9.078;2022-10-16T04:35:16;14.40;99.90
2300;DHT22;1158;48.750;9.078;2022-10-16T04:37:43;14.30;99.90
2300;DHT22;1158;48.750;9.078;2022-10-16T04:40:10;14.30;99.90
2300;DHT22;1158;48.750;9.078;2022-10-16T04:42:37;14.30;99.90
2300;DHT22;1158;48.750;9.078;2022-10-16T04:45:05;14.20;99.90
2300;DHT22;1158;48.750;9.078;2022-10-16T04:47:33;14.20;99.90
2300;DHT22;1158;48.750;9.078;2022-10-16T04:50:01;14.20;99.90
2300;DHT22;1158;48.750;9.078;2022-10-16T04:52:28;14.10;99.90
2300;DHT22;1158;48.750;9.078;2022-10-16T04:54:55;14.10;99.90
2300;DHT22;1158;48.750;9.078;2022-10-16T04:57:25;14.10;99.90
2300;DHT22;1158;48.750;9.078;2022-10-16T04:59:52;14.00;99.90
2300;DHT22;1158;48.750;9.078;2022-10-16T05:02:19;14.00;99.90
2300;DHT22;1158;48.750;9.078;2022-10-16T05:04:46;14.00;99.90
2300;DHT22;1158;48.750;9.078;2022-10-16T05:07:14;13.90;99.90
2300;DHT22;1158;48.750;9.078;2022-10-16T05:09:40;13.90;99.90
2300;DHT22;1158;48.750;9.078;2022-10-16T05:12:07;13.90;99.90
2300;DHT22;1158;48.750;9.078;2022-10-16T05:14:34;13.90;99.90
2300;DHT22;1158;48.750;9.078;2022-10-16T05:17:01;13.80;99.90
2300;DHT22;1158;48.750;9.078;2022-10-16T05:19:27;13.80;99.90
2300;DHT22;1158;48.750;9.078;2022-10-16T05:21:54;13.80;99.90
2300;DHT22;1158;48.750;9.078;2022-10-16T05:24:23;13.70;99.90
2300;DHT22;1158;48.750;9.078;2022-10-16T05:26:49;13.60;99.90
2300;DHT22;1158;48.750;9.078;2022-10-16T05:29:16;13.70;99.90
2300;DHT22;1158;48.750;9.078;2022-10-16T05:31:43;13.60;99.90
2300;DHT22;1158;48.750;9.078;2022-10-16T05:34:10;13.60;99.90
2300;DHT22;1158;48.750;9.078;2022-10-16T05:36:37;13.60;99.90
2300;DHT22;1158;48.750;9.078;2022-10-16T05:39:03;13.50;99.90
2300;DHT22;1158;48.750;9.078;2022-10-16T05:41:32;13.40;99.90
2300;DHT22;1158;48.750;9.078;2022-10-16T05:43:58;13.40;99.90
2300;DHT22;1158;48.750;9.078;2022-10-16T05:46:25;13.30;99.90
2300;DHT22;1158;48.750;9.078;2022-10-16T05:48:52;13.30;99.90
2300;DHT22;1158;48.750;9.078;2022-10-16T05:51:19;13.30;99.90
2300;DHT22;1158;48.750;9.078;2022-10-16T05:53:46;13.30;99.90
2300;DHT22;1158;48.750;9.078;2022-10-16T05:56:13;13.30;99.90
2300;DHT22;1158;48.750;9.078;2022-10-16T05:58:41;13.30;99.90
2300;DHT22;1158;48.750;9.078;2022-10-16T06:01:11;13.40;99.90
2300;DHT22;1158;48.750;9.078;2022-10-16T06:03:39;13.50;99.90
2300;DHT22;1158;48.750;9.078;2022-10-16T06:06:09;13.50;99.90
2300;DHT22;1158;48.750;9.078;2022-10-16T06:08:37;13.60;99.90
2300;DHT22;1158;48.750;9.078;2022-10-16T06:11:06;13.60;99.90
2300;DHT22;1158;48.750;9.078;2022-10-16T06:13:33;13.60;99.90
2300;DHT22;1158;48.750;9.078;2022-10-16T06:16:02;13.70;99.90
2300;DHT22;1158;48.750;9.078;2022-10-16T06:18:29;13.70;99.90
2300;DHT22;1158;48.750;9.078;2022-10-16T06:20:56;13.80;99.90
2300;DHT22;1158;48.750;9.078;2022-10-16T06:23:24;14.00;99.90
2300;DHT22;1158;48.750;9.078;2022-10-16T06:25:51;14.10;99.90
2300;DHT22;1158;48.750;9.078;2022-10-16T06:28:18;14.20;99.90
2300;DHT22;1158;48.750;9.078;2022-10-16T06:30:45;14.40;99.90
2300;DHT22;1158;48.750;9.078;2022-10-16T06:33:13;14.50;99.90
2300;DHT22;1158;48.750;9.078;2022-10-16T06:35:40;14.70;99.90
2300;DHT22;1158;48.750;9.078;2022-10-16T06:38:07;14.80;99.90
2300;DHT22;1158;48.750;9.078;2022-10-16T06:40:34;14.90;99.90
2300;DHT22;1158;48.750;9.078;2022-10-16T06:43:01;15.00;99.90
2300;DHT22;1158;48.750;9.078;2022-10-16T06:45:28;15.20;99.90
2300;DHT22;1158;48.750;9.078;2022-10-16T06:47:54;15.50;99.90
2300;DHT22;1158;48.750;9.078;2022-10-16T06:50:22;15.80;99.90
2300;DHT22;1158;48.750;9.078;2022-10-16T06:52:49;15.90;99.90
2300;DHT22;1158;48.750;9.078;2022-10-16T06:55:16;15.70;99.90
2300;DHT22;1158;48.750;9.078;2022-10-16T06:57:43;15.70;99.90
2300;DHT22;1158;48.750;9.078;2022-10-16T07:00:10;15.60;99.90
2300;DHT22;1158;48.750;9.078;2022-10-16T07:02:37;15.70;99.90
2300;DHT22;1158;48.750;9.078;2022-10-16T07:05:04;15.80;99.90
2300;DHT22;1158;48.750;9.078;2022-10-16T07:07:32;15.80;99.90
2300;DHT22;1158;48.750;9.078;2022-10-16T07:09:59;15.80;99.90
2300;DHT22;1158;48.750;9.078;2022-10-16T07:12:26;15.90;99.90
2300;DHT22;1158;48.750;9.078;2022-10-16T07:14:53;15.90;99.90
2300;DHT22;1158;48.750;9.078;2022-10-16T07:17:21;15.90;99.90
2300;DHT22;1158;48.750;9.078;2022-10-16T07:19:47;16.00;99.90
2300;DHT22;1158;48.750;9.078;2022-10-16T07:22:14;16.00;99.90
2300;DHT22;1158;48.750;9.078;2022-10-16T07:24:42;16.00;99.90
2300;DHT22;1158;48.750;9.078;2022-10-16T07:27:09;15.90;99.90
2300;DHT22;1158;48.750;9.078;2022-10-16T07:29:36;15.90;99.90
2300;DHT22;1158;48.750;9.078;2022-10-16T07:32:03;15.90;99.90
2300;DHT22;1158;48.750;9.078;2022-10-16T07:34:30;15.90;99.90
2300;DHT22;1158;48.750;9.078;2022-10-16T07:36:57;15.90;99.90
2300;DHT22;1158;48.750;9.078;2022-10-16T07:39:23;15.90;99.90
2300;DHT22;1158;48.750;9.078;2022-10-16T07:41:51;16.00;99.90
2300;DHT22;1158;48.750;9.078;2022-10-16T07:44:18;16.00;99.90
2300;DHT22;1158;48.750;9.078;2022-10-16T07:46:45;16.20;99.90
2300;DHT22;1158;48.750;9.078;2022-10-16T07:49:12;16.20;99.90
2300;DHT22;1158;48.750;9.078;2022-10-16T07:51:39;16.20;99.90
2300;DHT22;1158;48.750;9.078;2022-10-16T07:54:07;16.10;99.90
2300;DHT22;1158;48.750;9.078;2022-10-16T07:56:34;16.20;99.90
2300;DHT22;1158;48.750;9.078;2022-10-16T07:59:02;16.20;99.90
2300;DHT22;1158;48.750;9.078;2022-10-16T08:01:29;16.30;99.90
2300;DHT22;1158;48.750;9.078;2022-10-16T08:03:56;16.30;99.90
2300;DHT22;1158;48.750;9.078;2022-10-16T08:06:23;16.40;99.90
2300;DHT22;1158;48.750;9.078;2022-10-16T08:08:49;16.50;99.90
2300;DHT22;1158;48.750;9.078;2022-10-16T08:11:16;16.70;99.90
2300;DHT22;1158;48.750;9.078;2022-10-16T08:13:43;16.90;99.90
2300;DHT22;1158;48.750;9.078;2022-10-16T08:16:11;17.10;99.90
2300;DHT22;1158;48.750;9.078;2022-10-16T08:18:39;17.30;99.90
2300;DHT22;1158;48.750;9.078;2022-10-16T08:21:07;17.40;99.90
2300;DHT22;1158;48.750;9.078;2022-10-16T08:23:37;17.80;99.90
2300;DHT22;1158;48.750;9.078;2022-10-16T08:26:06;18.10;99.90
2300;DHT22;1158;48.750;9.078;2022-10-16T08:28:33;18.10;99.90
2300;DHT22;1158;48.750;9.078;2022-10-16T08:31:08;18.10;99.90
2300;DHT22;1158;48.750;9.078;2022-10-16T08:33:36;18.20;99.90
2300;DHT22;1158;48.750;9.078;2022-10-16T08:36:05;18.10;99.90
2300;DHT22;1158;48.750;9.078;2022-10-16T08:38:31;17.90;99.90
2300;DHT22;1158;48.750;9.078;2022-10-16T08:41:13;18.00;99.90
2300;DHT22;1158;48.750;9.078;2022-10-16T08:43:59;18.00;99.90
2300;DHT22;1158;48.750;9.078;2022-10-16T08:46:37;17.90;99.90
2300;DHT22;1158;48.750;9.078;2022-10-16T08:49:12;17.80;99.90
2300;DHT22;1158;48.750;9.078;2022-10-16T08:51:40;17.80;99.90
2300;DHT22;1158;48.750;9.078;2022-10-16T08:54:19;17.80;99.90
2300;DHT22;1158;48.750;9.078;2022-10-16T08:56:47;17.80;99.90
2300;DHT22;1158;48.750;9.078;2022-10-16T08:59:16;17.80;99.90
2300;DHT22;1158;48.750;9.078;2022-10-16T09:01:45;18.00;99.90
2300;DHT22;1158;48.750;9.078;2022-10-16T09:04:44;18.20;99.90
2300;DHT22;1158;48.750;9.078;2022-10-16T09:07:17;18.50;99.90
2300;DHT22;1158;48.750;9.078;2022-10-16T09:09:58;18.80;99.90
2300;DHT22;1158;48.750;9.078;2022-10-16T09:12:33;19.80;99.90
2300;DHT22;1158;48.750;9.078;2022-10-16T09:15:14;21.10;99.90
2300;DHT22;1158;48.750;9.078;2022-10-16T09:17:52;21.60;99.90
2300;DHT22;1158;48.750;9.078;2022-10-16T09:20:31;21.90;99.90
2300;DHT22;1158;48.750;9.078;2022-10-16T09:23:10;23.10;99.90
2300;DHT22;1158;48.750;9.078;2022-10-16T09:25:40;22.90;99.90
2300;DHT22;1158;48.750;9.078;2022-10-16T09:28:09;22.30;99.90
2300;DHT22;1158;48.750;9.078;2022-10-16T09:30:37;22.50;99.90
2300;DHT22;1158;48.750;9.078;2022-10-16T09:33:04;23.30;99.90
2300;DHT22;1158;48.750;9.078;2022-10-16T09:35:37;23.80;99.90
2300;DHT22;1158;48.750;9.078;2022-10-16T09:38:05;22.50;99.90
2300;DHT22;1158;48.750;9.078;2022-10-16T09:40:33;21.70;99.90
2300;DHT22;1158;48.750;9.078;2022-10-16T09:43:18;20.90;99.90
2300;DHT22;1158;48.750;9.078;2022-10-16T09:45:54;20.90;99.90
2300;DHT22;1158;48.750;9.078;2022-10-16T09:48:21;20.50;99.90
2300;DHT22;1158;48.750;9.078;2022-10-16T09:50:57;21.10;99.90
2300;DHT22;1158;48.750;9.078;2022-10-16T09:53:26;21.60;99.90
2300;DHT22;1158;48.750;9.078;2022-10-16T09:56:04;21.60;99.90
2300;DHT22;1158;48.750;9.078;2022-10-16T09:58:32;21.90;99.90
2300;DHT22;1158;48.750;9.078;2022-10-16T10:00:59;22.40;99.90
2300;DHT22;1158;48.750;9.078;2022-10-16T10:03:33;22.90;99.90
2300;DHT22;1158;48.750;9.078;2022-10-16T10:06:07;22.90;99.90
2300;DHT22;1158;48.750;9.078;2022-10-16T10:08:51;22.70;99.90
2300;DHT22;1158;48.750;9.078;2022-10-16T10:11:18;22.60;99.90
2300;DHT22;1158;48.750;9.078;2022-10-16T10:14:05;22.80;99.90
2300;DHT22;1158;48.750;9.078;2022-10-16T10:16:32;22.20;99.90
2300;DHT22;1158;48.750;9.078;2022-10-16T10:19:00;21.90;99.90
2300;DHT22;1158;48.750;9.078;2022-10-16T10:21:28;21.90;99.90
2300;DHT22;1158;48.750;9.078;2022-10-16T10:23:55;22.30;99.90
2300;DHT22;1158;48.750;9.078;2022-10-16T10:26:24;22.30;99.90
2300;DHT22;1158;48.750;9.078;2022-10-16T10:28:59;22.30;99.90
2300;DHT22;1158;48.750;9.078;2022-10-16T10:31:33;22.40;99.90
2300;DHT22;1158;48.750;9.078;2022-10-16T10:34:11;22.50;99.90
2300;DHT22;1158;48.750;9.078;2022-10-16T10:36:46;22.80;99.90
2300;DHT22;1158;48.750;9.078;2022-10-16T10:39:18;22.90;99.90
2300;DHT22;1158;48.750;9.078;2022-10-16T10:42:06;23.10;99.90
2300;DHT22;1158;48.750;9.078;2022-10-16T10:44:55;23.60;99.90
2300;DHT22;1158;48.750;9.078;2022-10-16T10:47:29;24.10;99.90
2300;DHT22;1158;48.750;9.078;2022-10-16T10:50:07;24.40;99.90
2300;DHT22;1158;48.750;9.078;2022-10-16T10:52:43;24.50;99.90
2300;DHT22;1158;48.750;9.078;2022-10-16T10:55:22;24.10;99.90
2300;DHT22;1158;48.750;9.078;2022-10-16T10:58:08;24.20;99.90
2300;DHT22;1158;48.750;9.078;2022-10-16T11:00:45;24.40;99.90
2300;DHT22;1158;48.750;9.078;2022-10-16T11:03:27;25.00;99.90
2300;DHT22;1158;48.750;9.078;2022-10-16T11:06:00;24.90;99.90
2300;DHT22;1158;48.750;9.078;2022-10-16T11:08:35;24.90;99.90
2300;DHT22;1158;48.750;9.078;2022-10-16T11:11:06;25.30;99.90
2300;DHT22;1158;48.750;9.078;2022-10-16T11:13:38;25.20;99.90
2300;DHT22;1158;48.750;9.078;2022-10-16T11:16:13;24.80;99.90
2300;DHT22;1158;48.750;9.078;2022-10-16T11:18:47;25.00;99.90
2300;DHT22;1158;48.750;9.078;2022-10-16T11:21:18;24.70;99.90
2300;DHT22;1158;48.750;9.078;2022-10-16T11:23:51;24.80;99.90
2300;DHT22;1158;48.750;9.078;2022-10-16T11:26:23;25.20;99.90
2300;DHT22;1158;48.750;9.078;2022-10-16T11:28:53;25.00;99.90
2300;DHT22;1158;48.750;9.078;2022-10-16T11:31:27;24.90;99.90
2300;DHT22;1158;48.750;9.078;2022-10-16T11:34:01;24.80;99.90
2300;DHT22;1158;48.750;9.078;2022-10-16T11:36:35;24.90;99.90
2300;DHT22;1158;48.750;9.078;2022-10-16T11:39:22;25.20;99.90
2300;DHT22;1158;48.750;9.078;2022-10-16T11:41:52;25.40;99.90
2300;DHT22;1158;48.750;9.078;2022-10-16T11:44:39;25.70;99.90
2300;DHT22;1158;48.750;9.078;2022-10-16T11:47:26;25.60;99.90
2300;DHT22;1158;48.750;9.078;2022-10-16T11:49:59;25.10;99.90
2300;DHT22;1158;48.750;9.078;2022-10-16T11:52:33;25.20;99.90
2300;DHT22;1158;48.750;9.078;2022-10-16T11:55:05;25.20;99.90
2300;DHT22;1158;48.750;9.078;2022-10-16T11:57:35;25.50;99.90
2300;DHT22;1158;48.750;9.078;2022-10-16T12:00:09;25.10;99.90
2300;DHT22;1158;48.750;9.078;2022-10-16T12:02:52;25.00;99.90
2300;DHT22;1158;48.750;9.078;2022-10-16T12:05:25;25.00;99.90
2300;DHT22;1158;48.750;9.078;2022-10-16T12:08:04;25.30;99.90
2300;DHT22;1158;48.750;9.078;2022-10-16T12:10:34;25.60;99.90
2300;DHT22;1158;48.750;9.078;2022-10-16T12:13:03;25.60;99.90
2300;DHT22;1158;48.750;9.078;2022-10-16T12:15:32;25.50;99.90
2300;DHT22;1158;48.750;9.078;2022-10-16T12:17:59;25.40;99.90
2300;DHT22;1158;48.750;9.078;2022-10-16T12:20:28;25.50;99.90
2300;DHT22;1158;48.750;9.078;2022-10-16T12:22:59;25.80;99.90
2300;DHT22;1158;48.750;9.078;2022-10-16T12:25:29;25.80;99.90
2300;DHT22;1158;48.750;9.078;2022-10-16T12:28:06;25.90;99.90
2300;DHT22;1158;48.750;9.078;2022-10-16T12:30:34;25.70;99.90
2300;DHT22;1158;48.750;9.078;2022-10-16T12:33:03;25.60;99.90
2300;DHT22;1158;48.750;9.078;2022-10-16T12:35:33;25.60;99.90
2300;DHT22;1158;48.750;9.078;2022-10-16T12:38:11;25.50;99.90
2300;DHT22;1158;48.750;9.078;2022-10-16T12:40:42;25.60;99.90
2300;DHT22;1158;48.750;9.078;2022-10-16T12:43:25;25.80;99.90
2300;DHT22;1158;48.750;9.078;2022-10-16T12:46:01;25.00;99.90
2300;DHT22;1158;48.750;9.078;2022-10-16T12:48:28;24.80;99.90
2300;DHT22;1158;48.750;9.078;2022-10-16T12:50:56;24.70;99.90
2300;DHT22;1158;48.750;9.078;2022-10-16T12:53:25;24.60;99.90
2300;DHT22;1158;48.750;9.078;2022-10-16T12:56:03;24.40;99.90
2300;DHT22;1158;48.750;9.078;2022-10-16T12:58:57;24.20;99.90
2300;DHT22;1158;48.750;9.078;2022-10-16T13:01:39;23.90;99.90
2300;DHT22;1158;48.750;9.078;2022-10-16T13:04:31;23.90;99.90
2300;DHT22;1158;48.750;9.078;2022-10-16T13:07:14;23.90;99.90
2300;DHT22;1158;48.750;9.078;2022-10-16T13:09:53;24.00;99.90
2300;DHT22;1158;48.750;9.078;2022-10-16T13:12:38;24.10;99.90
2300;DHT22;1158;48.750;9.078;2022-10-16T13:15:27;24.10;99.90
2300;DHT22;1158;48.750;9.078;2022-10-16T13:18:03;24.20;99.90
2300;DHT22;1158;48.750;9.078;2022-10-16T13:20:46;24.30;99.90
2300;DHT22;1158;48.750;9.078;2022-10-16T13:23:22;24.40;99.90
2300;DHT22;1158;48.750;9.078;2022-10-16T13:26:03;24.60;99.90
2300;DHT22;1158;48.750;9.078;2022-10-16T13:28:35;24.60;99.90
2300;DHT22;1158;48.750;9.078;2022-10-16T13:31:13;24.70;99.90
2300;DHT22;1158;48.750;9.078;2022-10-16T13:33:43;24.70;99.90
2300;DHT22;1158;48.750;9.078;2022-10-16T13:36:19;24.60;99.90
2300;DHT22;1158;48.750;9.078;2022-10-16T13:38:46;24.50;99.90
2300;DHT22;1158;48.750;9.078;2022-10-16T13:41:16;24.60;99.90
2300;DHT22;1158;48.750;9.078;2022-10-16T13:43:45;24.90;99.90
2300;DHT22;1158;48.750;9.078;2022-10-16T13:46:14;25.00;99.90
2300;DHT22;1158;48.750;9.078;2022-10-16T13:48:42;25.10;99.90
2300;DHT22;1158;48.750;9.078;2022-10-16T13:51:13;25.20;99.90
2300;DHT22;1158;48.750;9.078;2022-10-16T13:53:40;25.20;99.90
2300;DHT22;1158;48.750;9.078;2022-10-16T13:56:10;25.20;99.90
2300;DHT22;1158;48.750;9.078;2022-10-16T13:58:37;25.30;99.90
2300;DHT22;1158;48.750;9.078;2022-10-16T14:01:06;25.00;99.90
2300;DHT22;1158;48.750;9.078;2022-10-16T14:03:41;25.00;99.90
2300;DHT22;1158;48.750;9.078;2022-10-16T14:06:13;24.80;99.90
2300;DHT22;1158;48.750;9.078;2022-10-16T14:08:42;24.50;99.90
2300;DHT22;1158;48.750;9.078;2022-10-16T14:11:09;24.20;99.90
2300;DHT22;1158;48.750;9.078;2022-10-16T14:13:39;24.20;99.90
2300;DHT22;1158;48.750;9.078;2022-10-16T14:16:08;24.00;99.90
2300;DHT22;1158;48.750;9.078;2022-10-16T14:18:37;24.00;99.90
2300;DHT22;1158;48.750;9.078;2022-10-16T14:21:11;24.10;99.90
2300;DHT22;1158;48.750;9.078;2022-10-16T14:23:40;24.20;99.90
2300;DHT22;1158;48.750;9.078;2022-10-16T14:26:16;24.00;99.90
2300;DHT22;1158;48.750;9.078;2022-10-16T14:28:43;23.70;99.90
2300;DHT22;1158;48.750;9.078;2022-10-16T14:31:29;23.90;99.90
2300;DHT22;1158;48.750;9.078;2022-10-16T14:34:01;24.10;99.90
2300;DHT22;1158;48.750;9.078;2022-10-16T14:36:30;24.00;99.90
2300;DHT22;1158;48.750;9.078;2022-10-16T14:39:00;23.90;99.90
2300;DHT22;1158;48.750;9.078;2022-10-16T14:41:28;24.00;99.90
2300;DHT22;1158;48.750;9.078;2022-10-16T14:43:57;24.00;99.90
2300;DHT22;1158;48.750;9.078;2022-10-16T14:46:31;24.10;99.90
2300;DHT22;1158;48.750;9.078;2022-10-16T14:49:03;24.40;99.90
2300;DHT22;1158;48.750;9.078;2022-10-16T14:51:32;24.60;99.90
2300;DHT22;1158;48.750;9.078;2022-10-16T14:53:58;24.60;99.90
2300;DHT22;1158;48.750;9.078;2022-10-16T14:56:28;24.50;99.90
2300;DHT22;1158;48.750;9.078;2022-10-16T14:58:56;24.70;99.90
2300;DHT22;1158;48.750;9.078;2022-10-16T15:01:23;25.90;99.90
2300;DHT22;1158;48.750;9.078;2022-10-16T15:03:50;26.30;99.90
2300;DHT22;1158;48.750;9.078;2022-10-16T15:06:19;26.10;99.90
2300;DHT22;1158;48.750;9.078;2022-10-16T15:08:47;26.50;99.90
2300;DHT22;1158;48.750;9.078;2022-10-16T15:11:16;26.60;99.90
2300;DHT22;1158;48.750;9.078;2022-10-16T15:13:43;26.60;99.90
2300;DHT22;1158;48.750;9.078;2022-10-16T15:16:11;26.30;99.90
2300;DHT22;1158;48.750;9.078;2022-10-16T15:18:38;26.40;99.90
2300;DHT22;1158;48.750;9.078;2022-10-16T15:21:05;26.50;99.90
2300;DHT22;1158;48.750;9.078;2022-10-16T15:23:32;26.80;99.90
2300;DHT22;1158;48.750;9.078;2022-10-16T15:26:00;27.20;99.90
2300;DHT22;1158;48.750;9.078;2022-10-16T15:28:27;27.50;99.90
2300;DHT22;1158;48.750;9.078;2022-10-16T15:30:55;27.60;99.90
2300;DHT22;1158;48.750;9.078;2022-10-16T15:33:25;26.80;99.90
2300;DHT22;1158;48.750;9.078;2022-10-16T15:35:53;26.10;99.90
2300;DHT22;1158;48.750;9.078;2022-10-16T15:38:21;25.50;99.90
2300;DHT22;1158;48.750;9.078;2022-10-16T15:40:48;25.00;99.90
2300;DHT22;1158;48.750;9.078;2022-10-16T15:43:16;24.00;99.90
2300;DHT22;1158;48.750;9.078;2022-10-16T15:45:44;23.40;99.90
2300;DHT22;1158;48.750;9.078;2022-10-16T15:48:12;22.80;99.90
2300;DHT22;1158;48.750;9.078;2022-10-16T15:50:40;22.40;99.90
2300;DHT22;1158;48.750;9.078;2022-10-16T15:53:07;21.90;99.90
2300;DHT22;1158;48.750;9.078;2022-10-16T15:55:34;21.60;99.90
2300;DHT22;1158;48.750;9.078;2022-10-16T15:58:03;21.30;99.90
2300;DHT22;1158;48.750;9.078;2022-10-16T16:00:32;21.00;99.90
2300;DHT22;1158;48.750;9.078;2022-10-16T16:02:58;20.60;99.90
2300;DHT22;1158;48.750;9.078;2022-10-16T16:05:25;20.30;99.90
2300;DHT22;1158;48.750;9.078;2022-10-16T16:07:53;20.00;99.90
2300;DHT22;1158;48.750;9.078;2022-10-16T16:10:20;19.80;99.90
2300;DHT22;1158;48.750;9.078;2022-10-16T16:12:47;19.70;99.90
2300;DHT22;1158;48.750;9.078;2022-10-16T16:15:18;19.50;99.90
2300;DHT22;1158;48.750;9.078;2022-10-16T16:17:46;19.30;99.90
2300;DHT22;1158;48.750;9.078;2022-10-16T16:20:13;19.00;99.90
2300;DHT22;1158;48.750;9.078;2022-10-16T16:22:40;18.90;99.90